ITT6031 ZHCC-ZBAD
Flight info
| Callsign | ITT6031 |
|---|---|
| Flight time | N/A |
| Altitude | 40100 |
| Route | OKT9W OKTOX W56 ORODO W62 KARVU/K0889S1250 W62 IGDID/K0885S1220 W62 TEKIL G212 BELAX BELAX5L |
| Aircraft | A359/H-SDE2E3GHIJ1J3J4J5LM1ORWXY/LB1D1 |
Departure
| Time | N/A |
|---|---|
| Airport | Zhengzhou Xinzheng International Airport (ZHCC) |
Arrival
| Time | 2026-04-17 10:41 |
|---|---|
| Airport | Beijing Daxing International Airport (ZBAD) |
| Time | Latitude | Longitude | Altitude | Speed | Heading |
|---|---|---|---|---|---|
| 2026-04-17 09:48 | 34.70872 | 114.58854 | 23903 ft | 414 kts | 2° |
| 2026-04-17 09:48 | 34.73759 | 114.59116 | 24458 ft | 418 kts | 2° |
| 2026-04-17 09:49 | 34.76674 | 114.59390 | 25029 ft | 422 kts | 2° |
| 2026-04-17 09:49 | 34.79609 | 114.59670 | 25588 ft | 426 kts | 1° |
| 2026-04-17 09:49 | 34.82577 | 114.59955 | 26148 ft | 429 kts | 1° |
| 2026-04-17 09:49 | 34.85566 | 114.60243 | 26699 ft | 433 kts | 1° |
| 2026-04-17 09:50 | 34.88584 | 114.60532 | 27258 ft | 437 kts | 1° |
| 2026-04-17 09:50 | 34.91624 | 114.60824 | 27851 ft | 439 kts | 1° |
| 2026-04-17 09:50 | 34.94681 | 114.61117 | 28382 ft | 443 kts | 1° |
| 2026-04-17 09:50 | 34.97767 | 114.61413 | 28891 ft | 447 kts | 0° |
| 2026-04-17 09:51 | 35.00883 | 114.61710 | 29395 ft | 451 kts | 0° |
| 2026-04-17 09:51 | 35.04023 | 114.62011 | 29897 ft | 454 kts | 0° |
| 2026-04-17 09:51 | 35.07190 | 114.62315 | 30307 ft | 458 kts | 0° |
| 2026-04-17 09:51 | 35.10387 | 114.62621 | 30661 ft | 463 kts | 360° |
| 2026-04-17 09:52 | 35.13607 | 114.62929 | 31085 ft | 466 kts | 360° |
| 2026-04-17 09:52 | 35.16854 | 114.63242 | 31486 ft | 469 kts | 360° |
| 2026-04-17 09:52 | 35.20118 | 114.63556 | 31840 ft | 473 kts | 360° |
| 2026-04-17 09:52 | 35.23409 | 114.63873 | 32194 ft | 476 kts | 359° |
| 2026-04-17 09:53 | 35.26725 | 114.64193 | 32553 ft | 480 kts | 359° |
| 2026-04-17 09:53 | 35.30019 | 114.64511 | 32882 ft | 483 kts | 359° |
| 2026-04-17 09:53 | 35.33381 | 114.64836 | 33226 ft | 486 kts | 359° |
| 2026-04-17 09:53 | 35.36761 | 114.65163 | 33585 ft | 489 kts | 359° |
| 2026-04-17 09:54 | 35.40157 | 114.65492 | 33903 ft | 492 kts | 359° |
| 2026-04-17 09:54 | 35.43579 | 114.65823 | 34171 ft | 494 kts | 359° |
| 2026-04-17 09:54 | 35.47014 | 114.66156 | 34447 ft | 497 kts | 359° |
| 2026-04-17 09:54 | 35.50459 | 114.66492 | 34810 ft | 496 kts | 359° |
| 2026-04-17 09:55 | 35.53899 | 114.66828 | 35222 ft | 495 kts | 359° |
| 2026-04-17 09:55 | 35.57329 | 114.67164 | 35617 ft | 494 kts | 359° |
| 2026-04-17 09:55 | 35.60745 | 114.67498 | 36071 ft | 491 kts | 359° |
| 2026-04-17 09:55 | 35.64148 | 114.67831 | 36417 ft | 491 kts | 359° |
| 2026-04-17 09:56 | 35.67556 | 114.68162 | 36720 ft | 491 kts | 359° |
| 2026-04-17 09:56 | 35.70962 | 114.68493 | 37033 ft | 491 kts | 359° |
| 2026-04-17 09:56 | 35.74374 | 114.68825 | 37351 ft | 491 kts | 359° |
| 2026-04-17 09:56 | 35.77777 | 114.69157 | 37667 ft | 491 kts | 359° |
| 2026-04-17 09:57 | 35.81177 | 114.69490 | 38033 ft | 490 kts | 359° |
| 2026-04-17 09:57 | 35.84576 | 114.69823 | 38374 ft | 489 kts | 359° |
| 2026-04-17 09:57 | 35.87964 | 114.70155 | 38644 ft | 489 kts | 359° |
| 2026-04-17 09:57 | 35.91358 | 114.70487 | 38851 ft | 489 kts | 359° |
| 2026-04-17 09:58 | 35.94754 | 114.70820 | 39058 ft | 489 kts | 359° |
| 2026-04-17 09:58 | 35.98145 | 114.71153 | 39279 ft | 489 kts | 359° |
| 2026-04-17 09:58 | 36.01536 | 114.71486 | 39497 ft | 489 kts | 359° |
| 2026-04-17 09:58 | 36.04925 | 114.71819 | 39745 ft | 488 kts | 359° |
| 2026-04-17 09:59 | 36.08307 | 114.72153 | 39964 ft | 487 kts | 359° |
| 2026-04-17 09:59 | 36.11689 | 114.72487 | 40140 ft | 488 kts | 359° |
| 2026-04-17 09:59 | 36.15074 | 114.72818 | 40317 ft | 488 kts | 359° |
| 2026-04-17 09:59 | 36.18457 | 114.73147 | 40492 ft | 488 kts | 359° |
| 2026-04-17 10:00 | 36.21843 | 114.73478 | 40665 ft | 488 kts | 358° |
| 2026-04-17 10:00 | 36.25228 | 114.73808 | 40828 ft | 488 kts | 358° |
| 2026-04-17 10:00 | 36.32034 | 114.74482 | 40921 ft | 494 kts | 359° |
| 2026-04-17 10:01 | 36.38908 | 114.74892 | 40920 ft | 492 kts | 353° |
| 2026-04-17 10:01 | 36.45741 | 114.74680 | 40937 ft | 491 kts | 352° |
| 2026-04-17 10:02 | 36.52551 | 114.74367 | 40911 ft | 489 kts | 352° |
| 2026-04-17 10:02 | 36.59354 | 114.74041 | 40909 ft | 489 kts | 352° |
| 2026-04-17 10:03 | 36.66153 | 114.73723 | 40907 ft | 489 kts | 352° |
| 2026-04-17 10:03 | 36.72951 | 114.73449 | 40899 ft | 490 kts | 354° |
| 2026-04-17 10:04 | 36.79763 | 114.74717 | 40906 ft | 504 kts | 12° |
| 2026-04-17 10:04 | 36.86303 | 114.78060 | 40899 ft | 510 kts | 19° |
| 2026-04-17 10:05 | 36.92739 | 114.81824 | 40904 ft | 510 kts | 20° |
| 2026-04-17 10:05 | 36.99100 | 114.85604 | 40903 ft | 509 kts | 20° |
| 2026-04-17 10:06 | 37.05507 | 114.89376 | 40900 ft | 509 kts | 20° |
| 2026-04-17 10:06 | 37.11918 | 114.93131 | 40902 ft | 509 kts | 19° |
| 2026-04-17 10:07 | 37.18333 | 114.96887 | 40897 ft | 509 kts | 19° |
| 2026-04-17 10:07 | 37.24742 | 115.00648 | 40897 ft | 509 kts | 19° |
| 2026-04-17 10:08 | 37.31153 | 115.04420 | 40900 ft | 509 kts | 19° |
| 2026-04-17 10:08 | 37.37575 | 115.08205 | 40894 ft | 510 kts | 19° |
| 2026-04-17 10:09 | 37.44000 | 115.11999 | 40892 ft | 510 kts | 19° |
| 2026-04-17 10:09 | 37.50421 | 115.15800 | 40901 ft | 510 kts | 19° |
| 2026-04-17 10:10 | 37.56837 | 115.19603 | 40894 ft | 510 kts | 19° |
| 2026-04-17 10:11 | 37.66419 | 115.25288 | 40908 ft | 510 kts | 19° |
| 2026-04-17 10:11 | 37.72827 | 115.29102 | 40894 ft | 509 kts | 19° |
| 2026-04-17 10:12 | 37.79358 | 115.32380 | 40893 ft | 499 kts | 7° |
| 2026-04-17 10:12 | 37.86109 | 115.33198 | 40909 ft | 481 kts | 349° |
| 2026-04-17 10:13 | 37.92749 | 115.32466 | 40879 ft | 478 kts | 347° |
| 2026-04-17 10:13 | 37.99353 | 115.31490 | 40881 ft | 478 kts | 347° |
| 2026-04-17 10:14 | 38.05957 | 115.30505 | 40877 ft | 478 kts | 347° |
| 2026-04-17 10:14 | 38.12557 | 115.29545 | 40884 ft | 477 kts | 347° |
| 2026-04-17 10:15 | 38.19105 | 115.28575 | 40880 ft | 476 kts | 347° |
| 2026-04-17 10:15 | 38.25691 | 115.27597 | 40878 ft | 477 kts | 347° |
| 2026-04-17 10:16 | 38.32273 | 115.26621 | 40877 ft | 477 kts | 347° |
| 2026-04-17 10:16 | 38.37751 | 115.25809 | 40876 ft | 476 kts | 347° |
| 2026-04-17 10:17 | 38.44335 | 115.24832 | 40881 ft | 476 kts | 347° |
| 2026-04-17 10:17 | 38.50924 | 115.23852 | 40882 ft | 476 kts | 347° |
| 2026-04-17 10:18 | 38.57585 | 115.23639 | 40883 ft | 489 kts | 2° |
| 2026-04-17 10:18 | 38.60905 | 115.24760 | 40888 ft | 500 kts | 16° |
| 2026-04-17 10:18 | 38.63996 | 115.26884 | 40887 ft | 512 kts | 31° |
| 2026-04-17 10:18 | 38.66639 | 115.29983 | 40886 ft | 522 kts | 46° |
| 2026-04-17 10:19 | 38.68633 | 115.33893 | 40886 ft | 530 kts | 62° |
| 2026-04-17 10:19 | 38.69836 | 115.38377 | 40907 ft | 536 kts | 77° |
| 2026-04-17 10:19 | 38.70268 | 115.43123 | 40883 ft | 538 kts | 84° |
| 2026-04-17 10:19 | 38.70949 | 115.47829 | 40887 ft | 537 kts | 72° |
| 2026-04-17 10:20 | 38.72234 | 115.52296 | 40889 ft | 533 kts | 61° |
| 2026-04-17 10:20 | 38.75745 | 115.60558 | 40892 ft | 531 kts | 56° |
| 2026-04-17 10:21 | 38.79481 | 115.68733 | 40895 ft | 532 kts | 56° |
| 2026-04-17 10:21 | 38.83242 | 115.76908 | 40906 ft | 532 kts | 56° |
| 2026-04-17 10:22 | 38.87001 | 115.85084 | 40897 ft | 532 kts | 56° |
| 2026-04-17 10:22 | 38.90760 | 115.93274 | 40898 ft | 532 kts | 56° |
| 2026-04-17 10:23 | 38.94512 | 116.01470 | 40900 ft | 533 kts | 56° |
| 2026-04-17 10:23 | 38.96385 | 116.05569 | 40791 ft | 529 kts | 56° |
| 2026-04-17 10:23 | 38.98236 | 116.09629 | 40015 ft | 524 kts | 56° |
| 2026-04-17 10:23 | 39.00221 | 116.13532 | 38796 ft | 519 kts | 45° |
| 2026-04-17 10:24 | 39.02799 | 116.16690 | 37325 ft | 507 kts | 29° |
| 2026-04-17 10:24 | 39.05834 | 116.18809 | 36077 ft | 487 kts | 14° |
| 2026-04-17 10:24 | 39.09055 | 116.19787 | 34915 ft | 468 kts | 359° |
| 2026-04-17 10:24 | 39.12237 | 116.19614 | 33689 ft | 452 kts | 345° |
| 2026-04-17 10:25 | 39.15184 | 116.18396 | 32294 ft | 441 kts | 335° |
| 2026-04-17 10:25 | 39.18002 | 116.16990 | 30864 ft | 440 kts | 339° |
| 2026-04-17 10:25 | 39.20934 | 116.15877 | 29449 ft | 439 kts | 343° |
| 2026-04-17 10:25 | 39.23898 | 116.15042 | 28145 ft | 433 kts | 347° |
| 2026-04-17 10:26 | 39.26837 | 116.14379 | 27020 ft | 423 kts | 349° |
| 2026-04-17 10:26 | 39.29719 | 116.13821 | 25917 ft | 415 kts | 350° |
| 2026-04-17 10:26 | 39.32546 | 116.13319 | 24844 ft | 406 kts | 351° |
| 2026-04-17 10:26 | 39.35318 | 116.12853 | 23807 ft | 398 kts | 352° |
| 2026-04-17 10:27 | 39.38037 | 116.12412 | 22591 ft | 391 kts | 352° |
| 2026-04-17 10:27 | 39.40720 | 116.11987 | 21299 ft | 386 kts | 352° |
| 2026-04-17 10:27 | 39.43365 | 116.11574 | 20086 ft | 381 kts | 352° |
| 2026-04-17 10:27 | 39.45978 | 116.11167 | 18913 ft | 375 kts | 352° |
| 2026-04-17 10:28 | 39.48551 | 116.10769 | 17738 ft | 370 kts | 352° |
| 2026-04-17 10:28 | 39.51094 | 116.10382 | 16431 ft | 367 kts | 352° |
| 2026-04-17 10:28 | 39.53580 | 116.10005 | 15721 ft | 350 kts | 351° |
| 2026-04-17 10:28 | 39.55929 | 116.09649 | 15270 ft | 329 kts | 351° |
| 2026-04-17 10:29 | 39.58136 | 116.09315 | 14803 ft | 311 kts | 350° |
| 2026-04-17 10:29 | 39.60257 | 116.08990 | 14115 ft | 304 kts | 349° |
| 2026-04-17 10:29 | 39.62347 | 116.08668 | 13306 ft | 301 kts | 349° |
| 2026-04-17 10:29 | 39.64388 | 116.08352 | 12506 ft | 298 kts | 349° |
| 2026-04-17 10:30 | 39.66431 | 116.08037 | 11739 ft | 294 kts | 349° |
| 2026-04-17 10:30 | 39.68448 | 116.07727 | 10972 ft | 290 kts | 349° |
| 2026-04-17 10:30 | 39.70449 | 116.07420 | 10211 ft | 288 kts | 349° |
| 2026-04-17 10:30 | 39.72432 | 116.07169 | 9418 ft | 287 kts | 354° |
| 2026-04-17 10:31 | 39.74410 | 116.07598 | 8512 ft | 295 kts | 19° |
| 2026-04-17 10:31 | 39.76053 | 116.09202 | 7687 ft | 298 kts | 51° |
| 2026-04-17 10:31 | 39.76887 | 116.11543 | 7148 ft | 278 kts | 78° |
| 2026-04-17 10:31 | 39.77088 | 116.13934 | 6820 ft | 255 kts | 84° |
| 2026-04-17 10:32 | 39.77271 | 116.16274 | 6653 ft | 261 kts | 83° |
| 2026-04-17 10:32 | 39.77475 | 116.18610 | 6354 ft | 258 kts | 83° |
| 2026-04-17 10:32 | 39.77688 | 116.20928 | 6035 ft | 259 kts | 83° |
| 2026-04-17 10:32 | 39.77906 | 116.23259 | 5839 ft | 260 kts | 83° |
| 2026-04-17 10:33 | 39.78116 | 116.25579 | 5506 ft | 257 kts | 84° |
| 2026-04-17 10:33 | 39.78316 | 116.27859 | 5310 ft | 246 kts | 84° |
| 2026-04-17 10:33 | 39.78504 | 116.29983 | 5237 ft | 228 kts | 85° |
| 2026-04-17 10:33 | 39.78579 | 116.31931 | 5004 ft | 205 kts | 98° |
| 2026-04-17 10:34 | 39.77957 | 116.33429 | 4764 ft | 179 kts | 143° |
| 2026-04-17 10:34 | 39.76973 | 116.34240 | 4595 ft | 159 kts | 160° |
| 2026-04-17 10:34 | 39.75989 | 116.34686 | 4462 ft | 143 kts | 171° |
| 2026-04-17 10:34 | 39.75028 | 116.34943 | 4383 ft | 140 kts | 176° |
| 2026-04-17 10:35 | 39.74078 | 116.35128 | 4310 ft | 136 kts | 178° |
| 2026-04-17 10:35 | 39.73158 | 116.35275 | 4230 ft | 135 kts | 179° |
| 2026-04-17 10:35 | 39.72211 | 116.35438 | 4110 ft | 136 kts | 177° |
| 2026-04-17 10:35 | 39.71278 | 116.35608 | 3931 ft | 135 kts | 178° |
| 2026-04-17 10:36 | 39.70359 | 116.35755 | 3754 ft | 135 kts | 178° |
| 2026-04-17 10:36 | 39.69431 | 116.35902 | 3548 ft | 134 kts | 178° |
| 2026-04-17 10:36 | 39.68502 | 116.36050 | 3377 ft | 134 kts | 178° |
| 2026-04-17 10:36 | 39.67577 | 116.36199 | 3195 ft | 133 kts | 178° |
| 2026-04-17 10:37 | 39.66658 | 116.36345 | 3028 ft | 133 kts | 179° |
| 2026-04-17 10:37 | 39.65742 | 116.36491 | 2850 ft | 133 kts | 178° |
| 2026-04-17 10:37 | 39.64829 | 116.36637 | 2683 ft | 132 kts | 178° |
| 2026-04-17 10:37 | 39.63920 | 116.36782 | 2506 ft | 131 kts | 177° |
| 2026-04-17 10:38 | 39.63016 | 116.36926 | 2339 ft | 130 kts | 176° |
| 2026-04-17 10:38 | 39.62210 | 116.37055 | 2175 ft | 130 kts | 176° |
| 2026-04-17 10:38 | 39.61318 | 116.37197 | 2008 ft | 129 kts | 177° |
| 2026-04-17 10:38 | 39.60428 | 116.37339 | 1845 ft | 129 kts | 177° |
| 2026-04-17 10:39 | 39.59536 | 116.37481 | 1678 ft | 129 kts | 176° |
| 2026-04-17 10:39 | 39.58643 | 116.37624 | 1493 ft | 129 kts | 176° |
| 2026-04-17 10:39 | 39.57749 | 116.37766 | 1329 ft | 129 kts | 177° |
| 2026-04-17 10:39 | 39.56857 | 116.37908 | 1159 ft | 129 kts | 176° |
| 2026-04-17 10:40 | 39.55964 | 116.38050 | 994 ft | 130 kts | 175° |
| 2026-04-17 10:40 | 39.55070 | 116.38194 | 803 ft | 130 kts | 176° |
| 2026-04-17 10:40 | 39.54153 | 116.38336 | 638 ft | 134 kts | 173° |
| 2026-04-17 10:40 | 39.53236 | 116.38511 | 402 ft | 131 kts | 173° |
| 2026-04-17 10:41 | 39.52331 | 116.38638 | 230 ft | 132 kts | 175° |
| 2026-04-17 10:41 | 39.51417 | 116.38781 | 101 ft | 132 kts | 174° |
| 2026-04-17 10:41 | 39.50571 | 116.38907 | 88 ft | 113 kts | 175° |
| 2026-04-17 10:41 | 39.50034 | 116.38996 | 84 ft | 36 kts | 173° |
| 2026-04-17 10:42 | 39.49984 | 116.39004 | 86 ft | 0 kts | 173° |